sensor_id;sensor_type;location;lat;lon;timestamp;P1;durP1;ratioP1;P2;durP2;ratioP2
27071;SDS011;14613;46.308;25.288;2022-08-25T00:01:09;16.83;;;4.60;;
27071;SDS011;14613;46.308;25.288;2022-08-25T00:03:37;24.55;;;5.20;;
27071;SDS011;14613;46.308;25.288;2022-08-25T00:06:04;18.52;;;5.82;;
27071;SDS011;14613;46.308;25.288;2022-08-25T00:08:30;17.67;;;4.45;;
27071;SDS011;14613;46.308;25.288;2022-08-25T00:10:59;15.05;;;4.15;;
27071;SDS011;14613;46.308;25.288;2022-08-25T00:13:29;17.88;;;4.65;;
27071;SDS011;14613;46.308;25.288;2022-08-25T00:15:54;20.17;;;4.40;;
27071;SDS011;14613;46.308;25.288;2022-08-25T00:18:20;17.27;;;4.43;;
27071;SDS011;14613;46.308;25.288;2022-08-25T00:20:46;25.85;;;4.60;;
27071;SDS011;14613;46.308;25.288;2022-08-25T00:23:12;25.38;;;4.90;;
27071;SDS011;14613;46.308;25.288;2022-08-25T00:25:38;20.92;;;4.03;;
27071;SDS011;14613;46.308;25.288;2022-08-25T00:28:04;12.57;;;4.28;;
27071;SDS011;14613;46.308;25.288;2022-08-25T00:30:30;18.67;;;5.50;;
27071;SDS011;14613;46.308;25.288;2022-08-25T00:32:55;22.98;;;4.28;;
27071;SDS011;14613;46.308;25.288;2022-08-25T00:35:21;15.23;;;3.80;;
27071;SDS011;14613;46.308;25.288;2022-08-25T00:37:48;17.33;;;4.22;;
27071;SDS011;14613;46.308;25.288;2022-08-25T00:40:14;18.33;;;3.53;;
27071;SDS011;14613;46.308;25.288;2022-08-25T00:42:40;20.55;;;4.10;;
27071;SDS011;14613;46.308;25.288;2022-08-25T00:45:06;15.38;;;4.53;;
27071;SDS011;14613;46.308;25.288;2022-08-25T00:47:32;20.23;;;4.40;;
27071;SDS011;14613;46.308;25.288;2022-08-25T00:49:58;24.85;;;4.43;;
27071;SDS011;14613;46.308;25.288;2022-08-25T00:52:27;21.27;;;4.05;;
27071;SDS011;14613;46.308;25.288;2022-08-25T00:57:42;20.40;;;4.97;;
27071;SDS011;14613;46.308;25.288;2022-08-25T01:00:22;16.55;;;4.55;;
27071;SDS011;14613;46.308;25.288;2022-08-25T01:02:51;15.57;;;4.65;;
27071;SDS011;14613;46.308;25.288;2022-08-25T01:05:17;17.48;;;3.75;;
27071;SDS011;14613;46.308;25.288;2022-08-25T01:07:44;16.40;;;4.03;;
27071;SDS011;14613;46.308;25.288;2022-08-25T01:10:11;15.05;;;4.45;;
27071;SDS011;14613;46.308;25.288;2022-08-25T01:12:37;14.75;;;3.75;;
27071;SDS011;14613;46.308;25.288;2022-08-25T01:15:05;14.05;;;4.88;;
27071;SDS011;14613;46.308;25.288;2022-08-25T01:17:33;13.63;;;4.78;;
27071;SDS011;14613;46.308;25.288;2022-08-25T01:20:21;15.27;;;4.05;;
27071;SDS011;14613;46.308;25.288;2022-08-25T01:22:48;24.75;;;4.70;;
27071;SDS011;14613;46.308;25.288;2022-08-25T01:27:59;24.75;;;5.53;;
27071;SDS011;14613;46.308;25.288;2022-08-25T01:30:25;18.40;;;4.35;;
27071;SDS011;14613;46.308;25.288;2022-08-25T01:32:52;20.52;;;4.15;;
27071;SDS011;14613;46.308;25.288;2022-08-25T01:35:17;17.38;;;4.13;;
27071;SDS011;14613;46.308;25.288;2022-08-25T01:37:43;10.63;;;4.25;;
27071;SDS011;14613;46.308;25.288;2022-08-25T01:40:09;15.82;;;4.97;;
27071;SDS011;14613;46.308;25.288;2022-08-25T01:42:53;18.00;;;5.70;;
27071;SDS011;14613;46.308;25.288;2022-08-25T01:45:31;22.17;;;4.05;;
27071;SDS011;14613;46.308;25.288;2022-08-25T01:47:57;22.05;;;4.13;;
27071;SDS011;14613;46.308;25.288;2022-08-25T01:50:23;13.73;;;4.28;;
27071;SDS011;14613;46.308;25.288;2022-08-25T01:52:58;19.52;;;4.15;;
27071;SDS011;14613;46.308;25.288;2022-08-25T01:55:28;15.60;;;4.35;;
27071;SDS011;14613;46.308;25.288;2022-08-25T01:57:54;13.55;;;4.13;;
27071;SDS011;14613;46.308;25.288;2022-08-25T02:00:22;21.92;;;4.88;;
27071;SDS011;14613;46.308;25.288;2022-08-25T02:02:48;24.60;;;4.20;;
27071;SDS011;14613;46.308;25.288;2022-08-25T02:05:14;20.73;;;4.78;;
27071;SDS011;14613;46.308;25.288;2022-08-25T02:07:41;21.52;;;4.72;;
27071;SDS011;14613;46.308;25.288;2022-08-25T02:10:08;11.05;;;4.40;;
27071;SDS011;14613;46.308;25.288;2022-08-25T02:12:35;24.05;;;4.60;;
27071;SDS011;14613;46.308;25.288;2022-08-25T02:15:03;10.88;;;5.22;;
27071;SDS011;14613;46.308;25.288;2022-08-25T02:17:30;26.80;;;4.35;;
27071;SDS011;14613;46.308;25.288;2022-08-25T02:19:59;15.07;;;4.07;;
27071;SDS011;14613;46.308;25.288;2022-08-25T02:22:25;15.63;;;4.68;;
27071;SDS011;14613;46.308;25.288;2022-08-25T02:24:52;19.52;;;4.85;;
27071;SDS011;14613;46.308;25.288;2022-08-25T02:27:18;23.77;;;3.75;;
27071;SDS011;14613;46.308;25.288;2022-08-25T02:29:44;8.15;;;4.32;;
27071;SDS011;14613;46.308;25.288;2022-08-25T02:32:10;19.17;;;4.38;;
27071;SDS011;14613;46.308;25.288;2022-08-25T02:34:36;20.95;;;4.93;;
27071;SDS011;14613;46.308;25.288;2022-08-25T02:37:03;25.40;;;4.85;;
27071;SDS011;14613;46.308;25.288;2022-08-25T02:39:29;26.25;;;5.75;;
27071;SDS011;14613;46.308;25.288;2022-08-25T02:42:07;14.25;;;4.90;;
27071;SDS011;14613;46.308;25.288;2022-08-25T02:47:32;21.40;;;4.78;;
27071;SDS011;14613;46.308;25.288;2022-08-25T02:50:02;22.73;;;4.70;;
27071;SDS011;14613;46.308;25.288;2022-08-25T02:52:29;17.58;;;4.47;;
27071;SDS011;14613;46.308;25.288;2022-08-25T02:54:54;24.05;;;4.38;;
27071;SDS011;14613;46.308;25.288;2022-08-25T02:57:20;16.60;;;4.60;;
27071;SDS011;14613;46.308;25.288;2022-08-25T02:59:46;17.48;;;4.85;;
27071;SDS011;14613;46.308;25.288;2022-08-25T03:02:12;22.55;;;4.53;;
27071;SDS011;14613;46.308;25.288;2022-08-25T03:04:40;14.57;;;4.20;;
27071;SDS011;14613;46.308;25.288;2022-08-25T03:07:06;17.67;;;4.10;;
27071;SDS011;14613;46.308;25.288;2022-08-25T03:09:32;19.65;;;5.20;;
27071;SDS011;14613;46.308;25.288;2022-08-25T03:12:02;15.98;;;4.88;;
27071;SDS011;14613;46.308;25.288;2022-08-25T03:14:31;24.75;;;4.72;;
27071;SDS011;14613;46.308;25.288;2022-08-25T03:16:57;20.77;;;5.40;;
27071;SDS011;14613;46.308;25.288;2022-08-25T03:19:22;18.80;;;7.07;;
27071;SDS011;14613;46.308;25.288;2022-08-25T03:21:48;17.48;;;5.65;;
27071;SDS011;14613;46.308;25.288;2022-08-25T03:24:16;17.23;;;4.78;;
27071;SDS011;14613;46.308;25.288;2022-08-25T03:26:42;25.02;;;5.25;;
27071;SDS011;14613;46.308;25.288;2022-08-25T03:29:24;15.38;;;5.07;;
27071;SDS011;14613;46.308;25.288;2022-08-25T03:31:52;27.17;;;6.32;;
27071;SDS011;14613;46.308;25.288;2022-08-25T03:34:20;19.77;;;3.85;;
27071;SDS011;14613;46.308;25.288;2022-08-25T03:36:47;22.35;;;4.18;;
27071;SDS011;14613;46.308;25.288;2022-08-25T03:39:15;14.43;;;3.80;;
27071;SDS011;14613;46.308;25.288;2022-08-25T03:41:42;21.85;;;4.50;;
27071;SDS011;14613;46.308;25.288;2022-08-25T03:44:09;17.90;;;4.50;;
27071;SDS011;14613;46.308;25.288;2022-08-25T03:46:37;19.67;;;4.65;;
27071;SDS011;14613;46.308;25.288;2022-08-25T03:49:06;26.33;;;5.85;;
27071;SDS011;14613;46.308;25.288;2022-08-25T03:51:34;22.92;;;5.95;;
27071;SDS011;14613;46.308;25.288;2022-08-25T03:54:02;17.83;;;5.00;;
27071;SDS011;14613;46.308;25.288;2022-08-25T03:56:29;16.25;;;5.25;;
27071;SDS011;14613;46.308;25.288;2022-08-25T03:58:55;18.08;;;4.70;;
27071;SDS011;14613;46.308;25.288;2022-08-25T04:01:21;24.75;;;5.60;;
27071;SDS011;14613;46.308;25.288;2022-08-25T04:03:48;20.50;;;4.68;;
27071;SDS011;14613;46.308;25.288;2022-08-25T04:06:14;23.60;;;6.55;;
27071;SDS011;14613;46.308;25.288;2022-08-25T04:08:41;22.17;;;5.07;;
27071;SDS011;14613;46.308;25.288;2022-08-25T04:11:08;24.52;;;5.15;;
27071;SDS011;14613;46.308;25.288;2022-08-25T04:13:36;10.48;;;4.25;;
27071;SDS011;14613;46.308;25.288;2022-08-25T04:16:03;20.80;;;4.40;;
27071;SDS011;14613;46.308;25.288;2022-08-25T04:18:35;22.55;;;5.22;;
27071;SDS011;14613;46.308;25.288;2022-08-25T04:21:02;20.27;;;6.78;;
27071;SDS011;14613;46.308;25.288;2022-08-25T04:23:30;26.77;;;5.00;;
27071;SDS011;14613;46.308;25.288;2022-08-25T04:25:56;14.07;;;4.30;;
27071;SDS011;14613;46.308;25.288;2022-08-25T04:28:22;27.02;;;5.38;;
27071;SDS011;14613;46.308;25.288;2022-08-25T04:30:48;21.60;;;4.82;;
27071;SDS011;14613;46.308;25.288;2022-08-25T04:33:13;30.33;;;6.13;;
27071;SDS011;14613;46.308;25.288;2022-08-25T04:35:39;20.60;;;5.68;;
27071;SDS011;14613;46.308;25.288;2022-08-25T04:38:05;14.90;;;5.93;;
27071;SDS011;14613;46.308;25.288;2022-08-25T04:40:31;27.45;;;5.53;;
27071;SDS011;14613;46.308;25.288;2022-08-25T04:42:57;18.75;;;5.05;;
27071;SDS011;14613;46.308;25.288;2022-08-25T04:45:23;23.70;;;7.05;;
27071;SDS011;14613;46.308;25.288;2022-08-25T04:47:49;22.17;;;6.90;;
27071;SDS011;14613;46.308;25.288;2022-08-25T04:50:15;22.27;;;7.05;;
27071;SDS011;14613;46.308;25.288;2022-08-25T04:52:40;29.13;;;7.85;;
27071;SDS011;14613;46.308;25.288;2022-08-25T04:55:06;21.20;;;4.78;;
27071;SDS011;14613;46.308;25.288;2022-08-25T04:57:32;20.50;;;4.32;;
27071;SDS011;14613;46.308;25.288;2022-08-25T04:59:58;36.22;;;5.35;;
27071;SDS011;14613;46.308;25.288;2022-08-25T05:02:23;21.67;;;7.72;;
27071;SDS011;14613;46.308;25.288;2022-08-25T05:04:49;24.33;;;5.90;;
27071;SDS011;14613;46.308;25.288;2022-08-25T05:07:15;14.40;;;4.70;;
27071;SDS011;14613;46.308;25.288;2022-08-25T05:09:41;20.17;;;4.53;;
27071;SDS011;14613;46.308;25.288;2022-08-25T05:12:07;10.32;;;4.32;;
27071;SDS011;14613;46.308;25.288;2022-08-25T05:14:33;15.75;;;5.03;;
27071;SDS011;14613;46.308;25.288;2022-08-25T05:16:59;23.95;;;4.68;;
27071;SDS011;14613;46.308;25.288;2022-08-25T05:19:25;20.60;;;4.40;;
27071;SDS011;14613;46.308;25.288;2022-08-25T05:21:51;25.00;;;4.85;;
27071;SDS011;14613;46.308;25.288;2022-08-25T05:24:18;24.80;;;4.95;;
27071;SDS011;14613;46.308;25.288;2022-08-25T05:26:44;25.55;;;4.82;;
27071;SDS011;14613;46.308;25.288;2022-08-25T05:29:10;25.17;;;5.20;;
27071;SDS011;14613;46.308;25.288;2022-08-25T05:31:35;16.85;;;4.47;;
27071;SDS011;14613;46.308;25.288;2022-08-25T05:34:05;33.53;;;6.97;;
27071;SDS011;14613;46.308;25.288;2022-08-25T05:36:32;19.70;;;4.85;;
27071;SDS011;14613;46.308;25.288;2022-08-25T05:38:58;32.72;;;5.88;;
27071;SDS011;14613;46.308;25.288;2022-08-25T05:41:26;20.00;;;4.95;;
27071;SDS011;14613;46.308;25.288;2022-08-25T05:43:53;26.27;;;5.43;;
27071;SDS011;14613;46.308;25.288;2022-08-25T05:46:19;25.15;;;4.55;;
27071;SDS011;14613;46.308;25.288;2022-08-25T05:48:45;31.77;;;5.80;;
27071;SDS011;14613;46.308;25.288;2022-08-25T05:51:12;35.50;;;5.07;;
27071;SDS011;14613;46.308;25.288;2022-08-25T05:53:40;28.35;;;5.78;;
27071;SDS011;14613;46.308;25.288;2022-08-25T05:56:07;24.15;;;5.68;;
27071;SDS011;14613;46.308;25.288;2022-08-25T05:58:34;22.70;;;5.88;;
27071;SDS011;14613;46.308;25.288;2022-08-25T06:01:00;20.52;;;5.55;;
27071;SDS011;14613;46.308;25.288;2022-08-25T06:03:47;24.10;;;5.15;;
27071;SDS011;14613;46.308;25.288;2022-08-25T06:06:14;32.88;;;6.25;;
27071;SDS011;14613;46.308;25.288;2022-08-25T06:08:41;27.95;;;6.38;;
27071;SDS011;14613;46.308;25.288;2022-08-25T06:11:08;28.67;;;5.65;;
27071;SDS011;14613;46.308;25.288;2022-08-25T06:13:34;38.58;;;6.30;;
27071;SDS011;14613;46.308;25.288;2022-08-25T06:16:00;28.73;;;6.45;;
27071;SDS011;14613;46.308;25.288;2022-08-25T06:18:26;29.48;;;6.03;;
27071;SDS011;14613;46.308;25.288;2022-08-25T06:20:52;32.88;;;7.50;;
27071;SDS011;14613;46.308;25.288;2022-08-25T06:23:18;20.83;;;5.82;;
27071;SDS011;14613;46.308;25.288;2022-08-25T06:25:48;31.23;;;7.25;;
27071;SDS011;14613;46.308;25.288;2022-08-25T06:28:15;34.67;;;6.22;;
27071;SDS011;14613;46.308;25.288;2022-08-25T06:30:41;35.75;;;8.20;;
27071;SDS011;14613;46.308;25.288;2022-08-25T06:33:07;40.78;;;8.75;;
27071;SDS011;14613;46.308;25.288;2022-08-25T06:35:33;36.20;;;9.30;;
27071;SDS011;14613;46.308;25.288;2022-08-25T06:37:58;44.83;;;10.18;;
27071;SDS011;14613;46.308;25.288;2022-08-25T06:40:24;38.10;;;9.55;;
27071;SDS011;14613;46.308;25.288;2022-08-25T06:42:50;41.05;;;10.02;;
27071;SDS011;14613;46.308;25.288;2022-08-25T06:45:16;35.88;;;9.45;;
27071;SDS011;14613;46.308;25.288;2022-08-25T06:47:42;45.50;;;10.05;;
27071;SDS011;14613;46.308;25.288;2022-08-25T06:50:08;34.33;;;10.52;;
27071;SDS011;14613;46.308;25.288;2022-08-25T06:52:34;28.10;;;9.82;;
27071;SDS011;14613;46.308;25.288;2022-08-25T06:55:01;27.20;;;8.90;;
27071;SDS011;14613;46.308;25.288;2022-08-25T06:57:27;30.65;;;8.63;;
27071;SDS011;14613;46.308;25.288;2022-08-25T06:59:53;31.45;;;8.52;;
27071;SDS011;14613;46.308;25.288;2022-08-25T07:02:19;34.40;;;9.00;;
27071;SDS011;14613;46.308;25.288;2022-08-25T07:04:45;39.75;;;8.05;;
27071;SDS011;14613;46.308;25.288;2022-08-25T07:07:10;30.90;;;9.43;;
27071;SDS011;14613;46.308;25.288;2022-08-25T07:09:36;30.42;;;7.45;;
27071;SDS011;14613;46.308;25.288;2022-08-25T07:12:02;31.17;;;7.82;;
27071;SDS011;14613;46.308;25.288;2022-08-25T07:14:29;43.17;;;8.23;;
27071;SDS011;14613;46.308;25.288;2022-08-25T07:16:55;29.20;;;6.53;;
27071;SDS011;14613;46.308;25.288;2022-08-25T07:19:21;26.85;;;7.20;;
27071;SDS011;14613;46.308;25.288;2022-08-25T07:21:48;34.80;;;6.63;;
27071;SDS011;14613;46.308;25.288;2022-08-25T07:24:16;46.08;;;8.15;;
27071;SDS011;14613;46.308;25.288;2022-08-25T07:26:42;37.92;;;8.55;;
27071;SDS011;14613;46.308;25.288;2022-08-25T07:29:12;35.28;;;7.68;;
27071;SDS011;14613;46.308;25.288;2022-08-25T07:31:40;43.30;;;8.27;;
27071;SDS011;14613;46.308;25.288;2022-08-25T07:34:07;46.90;;;7.43;;
27071;SDS011;14613;46.308;25.288;2022-08-25T07:36:51;36.45;;;7.45;;
27071;SDS011;14613;46.308;25.288;2022-08-25T07:39:18;29.70;;;6.15;;
27071;SDS011;14613;46.308;25.288;2022-08-25T07:41:44;48.20;;;7.78;;
27071;SDS011;14613;46.308;25.288;2022-08-25T07:44:10;28.48;;;6.63;;
27071;SDS011;14613;46.308;25.288;2022-08-25T07:46:37;29.80;;;5.18;;
27071;SDS011;14613;46.308;25.288;2022-08-25T07:49:04;24.13;;;6.53;;
27071;SDS011;14613;46.308;25.288;2022-08-25T07:51:31;34.28;;;7.25;;
27071;SDS011;14613;46.308;25.288;2022-08-25T07:53:57;25.63;;;5.50;;
27071;SDS011;14613;46.308;25.288;2022-08-25T07:56:23;26.13;;;5.43;;
27071;SDS011;14613;46.308;25.288;2022-08-25T07:58:49;35.50;;;7.00;;
27071;SDS011;14613;46.308;25.288;2022-08-25T08:01:21;29.88;;;6.18;;
27071;SDS011;14613;46.308;25.288;2022-08-25T08:03:49;28.45;;;6.80;;
27071;SDS011;14613;46.308;25.288;2022-08-25T08:06:16;33.75;;;5.72;;
27071;SDS011;14613;46.308;25.288;2022-08-25T08:08:47;49.78;;;8.40;;
27071;SDS011;14613;46.308;25.288;2022-08-25T08:11:18;40.63;;;5.82;;
27071;SDS011;14613;46.308;25.288;2022-08-25T08:13:50;46.10;;;6.88;;
27071;SDS011;14613;46.308;25.288;2022-08-25T08:16:18;29.08;;;5.63;;
27071;SDS011;14613;46.308;25.288;2022-08-25T08:18:45;30.48;;;5.50;;
27071;SDS011;14613;46.308;25.288;2022-08-25T08:21:13;32.83;;;5.85;;
27071;SDS011;14613;46.308;25.288;2022-08-25T08:23:41;35.40;;;5.78;;
27071;SDS011;14613;46.308;25.288;2022-08-25T08:26:07;32.40;;;5.55;;
27071;SDS011;14613;46.308;25.288;2022-08-25T08:28:32;30.35;;;4.82;;
27071;SDS011;14613;46.308;25.288;2022-08-25T08:30:59;31.88;;;5.53;;
27071;SDS011;14613;46.308;25.288;2022-08-25T08:33:24;22.25;;;5.30;;
27071;SDS011;14613;46.308;25.288;2022-08-25T08:38:24;23.88;;;5.53;;
27071;SDS011;14613;46.308;25.288;2022-08-25T08:40:55;34.70;;;9.80;;
27071;SDS011;14613;46.308;25.288;2022-08-25T08:43:53;33.25;;;5.55;;
27071;SDS011;14613;46.308;25.288;2022-08-25T08:46:29;31.92;;;5.55;;
27071;SDS011;14613;46.308;25.288;2022-08-25T08:49:05;21.45;;;5.18;;
27071;SDS011;14613;46.308;25.288;2022-08-25T08:51:49;25.20;;;5.45;;
27071;SDS011;14613;46.308;25.288;2022-08-25T08:54:22;29.35;;;5.18;;
27071;SDS011;14613;46.308;25.288;2022-08-25T08:57:12;37.83;;;4.93;;
27071;SDS011;14613;46.308;25.288;2022-08-25T08:59:46;30.67;;;5.63;;
27071;SDS011;14613;46.308;25.288;2022-08-25T09:02:17;20.98;;;4.65;;
27071;SDS011;14613;46.308;25.288;2022-08-25T09:04:54;36.33;;;5.85;;
27071;SDS011;14613;46.308;25.288;2022-08-25T09:07:28;24.25;;;4.32;;
27071;SDS011;14613;46.308;25.288;2022-08-25T09:09:59;24.70;;;4.40;;
27071;SDS011;14613;46.308;25.288;2022-08-25T09:12:30;20.25;;;5.13;;
27071;SDS011;14613;46.308;25.288;2022-08-25T09:29:03;13.40;;;3.60;;
27071;SDS011;14613;46.308;25.288;2022-08-25T09:31:35;24.63;;;3.63;;
27071;SDS011;14613;46.308;25.288;2022-08-25T09:34:04;18.35;;;3.05;;
27071;SDS011;14613;46.308;25.288;2022-08-25T09:36:40;15.55;;;3.20;;
27071;SDS011;14613;46.308;25.288;2022-08-25T09:39:06;13.30;;;3.60;;
27071;SDS011;14613;46.308;25.288;2022-08-25T09:41:40;12.10;;;3.63;;
27071;SDS011;14613;46.308;25.288;2022-08-25T09:44:18;15.23;;;3.40;;
27071;SDS011;14613;46.308;25.288;2022-08-25T09:52:34;9.57;;;3.05;;
27071;SDS011;14613;46.308;25.288;2022-08-25T09:57:50;12.02;;;2.83;;
27071;SDS011;14613;46.308;25.288;2022-08-25T10:08:25;11.57;;;2.83;;
27071;SDS011;14613;46.308;25.288;2022-08-25T10:10:57;13.02;;;3.20;;
27071;SDS011;14613;46.308;25.288;2022-08-25T10:13:33;8.50;;;3.13;;
27071;SDS011;14613;46.308;25.288;2022-08-25T10:16:04;10.88;;;2.80;;
27071;SDS011;14613;46.308;25.288;2022-08-25T10:19:00;12.13;;;3.08;;
27071;SDS011;14613;46.308;25.288;2022-08-25T10:21:41;12.32;;;3.40;;
27071;SDS011;14613;46.308;25.288;2022-08-25T10:24:08;6.88;;;2.92;;
27071;SDS011;14613;46.308;25.288;2022-08-25T10:26:54;8.00;;;2.35;;
27071;SDS011;14613;46.308;25.288;2022-08-25T10:32:30;9.30;;;2.75;;
27071;SDS011;14613;46.308;25.288;2022-08-25T10:35:53;6.63;;;2.13;;
27071;SDS011;14613;46.308;25.288;2022-08-25T10:40:45;11.90;;;3.17;;
27071;SDS011;14613;46.308;25.288;2022-08-25T10:46:47;11.48;;;2.65;;
27071;SDS011;14613;46.308;25.288;2022-08-25T10:51:49;10.00;;;3.22;;
27071;SDS011;14613;46.308;25.288;2022-08-25T11:07:45;9.40;;;2.85;;
27071;SDS011;14613;46.308;25.288;2022-08-25T11:10:24;9.30;;;2.90;;
27071;SDS011;14613;46.308;25.288;2022-08-25T11:13:03;10.38;;;2.30;;
27071;SDS011;14613;46.308;25.288;2022-08-25T11:15:35;10.45;;;2.13;;
27071;SDS011;14613;46.308;25.288;2022-08-25T11:18:06;16.92;;;2.28;;
27071;SDS011;14613;46.308;25.288;2022-08-25T11:20:45;16.17;;;2.45;;
27071;SDS011;14613;46.308;25.288;2022-08-25T11:23:23;7.03;;;2.25;;
27071;SDS011;14613;46.308;25.288;2022-08-25T11:25:59;17.80;;;2.45;;
27071;SDS011;14613;46.308;25.288;2022-08-25T11:28:57;10.55;;;2.78;;
27071;SDS011;14613;46.308;25.288;2022-08-25T11:31:50;11.88;;;2.67;;
27071;SDS011;14613;46.308;25.288;2022-08-25T11:34:17;10.82;;;2.70;;
27071;SDS011;14613;46.308;25.288;2022-08-25T11:36:56;7.85;;;2.15;;
27071;SDS011;14613;46.308;25.288;2022-08-25T11:39:54;10.63;;;2.13;;
27071;SDS011;14613;46.308;25.288;2022-08-25T11:46:04;10.60;;;2.42;;
27071;SDS011;14613;46.308;25.288;2022-08-25T11:48:43;11.70;;;2.58;;
27071;SDS011;14613;46.308;25.288;2022-08-25T11:51:32;6.93;;;2.75;;
27071;SDS011;14613;46.308;25.288;2022-08-25T11:56:41;11.40;;;2.00;;
27071;SDS011;14613;46.308;25.288;2022-08-25T11:59:19;12.00;;;2.85;;
27071;SDS011;14613;46.308;25.288;2022-08-25T12:05:01;11.27;;;2.55;;
27071;SDS011;14613;46.308;25.288;2022-08-25T12:10:57;6.38;;;2.17;;
27071;SDS011;14613;46.308;25.288;2022-08-25T12:16:06;6.65;;;1.90;;
27071;SDS011;14613;46.308;25.288;2022-08-25T12:27:08;2.33;;;1.48;;
27071;SDS011;14613;46.308;25.288;2022-08-25T12:32:45;14.30;;;1.88;;
27071;SDS011;14613;46.308;25.288;2022-08-25T12:38:44;15.07;;;2.38;;
27071;SDS011;14613;46.308;25.288;2022-08-25T12:41:19;7.95;;;2.03;;
27071;SDS011;14613;46.308;25.288;2022-08-25T12:43:52;7.85;;;1.75;;
27071;SDS011;14613;46.308;25.288;2022-08-25T12:46:34;3.85;;;2.05;;
27071;SDS011;14613;46.308;25.288;2022-08-25T12:51:59;9.05;;;2.17;;
27071;SDS011;14613;46.308;25.288;2022-08-25T12:59:58;5.03;;;1.83;;
27071;SDS011;14613;46.308;25.288;2022-08-25T13:02:45;5.63;;;2.13;;
27071;SDS011;14613;46.308;25.288;2022-08-25T13:11:07;11.52;;;3.15;;
27071;SDS011;14613;46.308;25.288;2022-08-25T13:13:46;4.88;;;1.80;;
27071;SDS011;14613;46.308;25.288;2022-08-25T13:16:31;6.20;;;2.08;;
27071;SDS011;14613;46.308;25.288;2022-08-25T13:18:58;6.28;;;2.80;;
27071;SDS011;14613;46.308;25.288;2022-08-25T13:24:28;53.33;;;16.17;;
27071;SDS011;14613;46.308;25.288;2022-08-25T13:26:55;71.15;;;21.15;;
27071;SDS011;14613;46.308;25.288;2022-08-25T13:29:28;17.13;;;2.70;;
27071;SDS011;14613;46.308;25.288;2022-08-25T13:31:56;9.63;;;1.90;;
27071;SDS011;14613;46.308;25.288;2022-08-25T13:34:28;8.10;;;2.17;;
27071;SDS011;14613;46.308;25.288;2022-08-25T13:37:06;6.45;;;2.10;;
27071;SDS011;14613;46.308;25.288;2022-08-25T13:42:41;6.25;;;2.08;;
27071;SDS011;14613;46.308;25.288;2022-08-25T13:45:09;5.07;;;2.03;;
27071;SDS011;14613;46.308;25.288;2022-08-25T13:47:41;5.07;;;1.60;;
27071;SDS011;14613;46.308;25.288;2022-08-25T13:52:47;10.63;;;2.13;;
27071;SDS011;14613;46.308;25.288;2022-08-25T13:58:17;5.65;;;2.40;;
27071;SDS011;14613;46.308;25.288;2022-08-25T14:03:40;14.88;;;1.80;;
27071;SDS011;14613;46.308;25.288;2022-08-25T14:08:40;7.57;;;1.90;;
27071;SDS011;14613;46.308;25.288;2022-08-25T14:11:11;5.20;;;2.20;;
27071;SDS011;14613;46.308;25.288;2022-08-25T14:14:01;11.13;;;2.22;;
27071;SDS011;14613;46.308;25.288;2022-08-25T14:16:30;7.70;;;1.92;;
27071;SDS011;14613;46.308;25.288;2022-08-25T14:19:00;6.07;;;1.70;;
27071;SDS011;14613;46.308;25.288;2022-08-25T14:21:28;6.90;;;1.80;;
27071;SDS011;14613;46.308;25.288;2022-08-25T14:23:55;10.00;;;2.10;;
27071;SDS011;14613;46.308;25.288;2022-08-25T14:26:22;4.93;;;1.85;;
27071;SDS011;14613;46.308;25.288;2022-08-25T14:28:48;4.50;;;1.50;;
27071;SDS011;14613;46.308;25.288;2022-08-25T14:33:53;9.57;;;1.88;;
27071;SDS011;14613;46.308;25.288;2022-08-25T14:36:22;6.90;;;1.95;;
27071;SDS011;14613;46.308;25.288;2022-08-25T14:38:49;6.72;;;2.35;;
27071;SDS011;14613;46.308;25.288;2022-08-25T14:41:14;9.05;;;2.10;;
27071;SDS011;14613;46.308;25.288;2022-08-25T14:43:40;5.63;;;2.30;;
27071;SDS011;14613;46.308;25.288;2022-08-25T14:46:13;4.60;;;1.70;;
27071;SDS011;14613;46.308;25.288;2022-08-25T14:48:45;7.22;;;2.50;;
27071;SDS011;14613;46.308;25.288;2022-08-25T14:51:18;7.40;;;1.88;;
27071;SDS011;14613;46.308;25.288;2022-08-25T14:53:44;5.38;;;1.95;;
27071;SDS011;14613;46.308;25.288;2022-08-25T14:56:10;6.93;;;1.95;;
27071;SDS011;14613;46.308;25.288;2022-08-25T14:58:36;8.88;;;2.50;;
27071;SDS011;14613;46.308;25.288;2022-08-25T15:01:02;8.20;;;2.90;;
27071;SDS011;14613;46.308;25.288;2022-08-25T15:03:30;7.57;;;2.10;;
27071;SDS011;14613;46.308;25.288;2022-08-25T15:06:02;4.47;;;2.08;;
27071;SDS011;14613;46.308;25.288;2022-08-25T15:08:29;3.38;;;1.92;;
27071;SDS011;14613;46.308;25.288;2022-08-25T15:11:13;24.42;;;2.13;;
27071;SDS011;14613;46.308;25.288;2022-08-25T15:13:39;7.95;;;3.00;;
27071;SDS011;14613;46.308;25.288;2022-08-25T15:16:06;6.15;;;2.30;;
27071;SDS011;14613;46.308;25.288;2022-08-25T15:18:33;3.90;;;2.50;;
27071;SDS011;14613;46.308;25.288;2022-08-25T15:20:59;7.15;;;2.15;;
27071;SDS011;14613;46.308;25.288;2022-08-25T15:23:26;6.40;;;2.72;;
27071;SDS011;14613;46.308;25.288;2022-08-25T15:25:53;8.20;;;2.00;;
27071;SDS011;14613;46.308;25.288;2022-08-25T15:28:20;5.05;;;1.95;;
27071;SDS011;14613;46.308;25.288;2022-08-25T15:30:46;15.07;;;2.72;;
27071;SDS011;14613;46.308;25.288;2022-08-25T15:33:15;13.27;;;2.17;;
27071;SDS011;14613;46.308;25.288;2022-08-25T15:35:41;7.53;;;2.13;;
27071;SDS011;14613;46.308;25.288;2022-08-25T15:38:07;6.15;;;2.47;;
27071;SDS011;14613;46.308;25.288;2022-08-25T15:40:33;3.42;;;2.05;;
27071;SDS011;14613;46.308;25.288;2022-08-25T15:43:03;10.05;;;2.05;;
27071;SDS011;14613;46.308;25.288;2022-08-25T15:45:29;5.60;;;1.88;;
27071;SDS011;14613;46.308;25.288;2022-08-25T15:47:55;7.65;;;1.70;;
27071;SDS011;14613;46.308;25.288;2022-08-25T15:50:21;6.60;;;1.70;;
27071;SDS011;14613;46.308;25.288;2022-08-25T15:52:47;14.43;;;2.30;;
27071;SDS011;14613;46.308;25.288;2022-08-25T15:55:14;8.52;;;2.13;;
27071;SDS011;14613;46.308;25.288;2022-08-25T15:57:40;10.13;;;2.35;;
27071;SDS011;14613;46.308;25.288;2022-08-25T16:00:07;8.55;;;2.05;;
27071;SDS011;14613;46.308;25.288;2022-08-25T16:02:36;13.73;;;2.10;;
27071;SDS011;14613;46.308;25.288;2022-08-25T16:05:03;10.55;;;2.42;;
27071;SDS011;14613;46.308;25.288;2022-08-25T16:07:33;10.10;;;2.28;;
27071;SDS011;14613;46.308;25.288;2022-08-25T16:09:58;6.45;;;2.20;;
27071;SDS011;14613;46.308;25.288;2022-08-25T16:12:25;9.23;;;2.72;;
27071;SDS011;14613;46.308;25.288;2022-08-25T16:14:51;9.30;;;1.92;;
27071;SDS011;14613;46.308;25.288;2022-08-25T16:17:17;9.25;;;1.75;;
27071;SDS011;14613;46.308;25.288;2022-08-25T16:19:44;8.30;;;2.10;;
27071;SDS011;14613;46.308;25.288;2022-08-25T16:22:10;6.70;;;1.55;;
27071;SDS011;14613;46.308;25.288;2022-08-25T16:24:39;10.18;;;2.10;;
27071;SDS011;14613;46.308;25.288;2022-08-25T16:27:08;4.50;;;2.20;;
27071;SDS011;14613;46.308;25.288;2022-08-25T16:29:35;8.05;;;2.70;;
27071;SDS011;14613;46.308;25.288;2022-08-25T16:32:06;15.95;;;2.72;;
27071;SDS011;14613;46.308;25.288;2022-08-25T16:34:33;7.78;;;2.42;;
27071;SDS011;14613;46.308;25.288;2022-08-25T16:36:59;10.43;;;3.42;;
27071;SDS011;14613;46.308;25.288;2022-08-25T16:39:26;7.65;;;2.25;;
27071;SDS011;14613;46.308;25.288;2022-08-25T16:41:51;11.63;;;2.97;;
27071;SDS011;14613;46.308;25.288;2022-08-25T16:44:17;6.22;;;2.65;;
27071;SDS011;14613;46.308;25.288;2022-08-25T16:46:44;12.10;;;3.40;;